Tuesday, December 18, 2018, 1:28 PM EST
Back to Local

KPSF, Pittsfield Municipal Airport

Location: Pittsfield, MA, United States Lat: 42.433
Local Time: 1:28 PM EST (18:28 GMT) Lon: -73.283
Time Zone: US/Eastern Elev: 1194 ft

Show me the last for .
Show Decoded

2018-12-18 12:54 METAR KPSF 181754Z AUTO 30012G21KT 10SM BKN031 M06/M13 A2994 RMK AO2 SLP156
                 T10611133 11056 21089 55000 =
2018-12-18 11:54 METAR KPSF 181654Z AUTO 31013G19KT 280V340 10SM OVC032 M06/M13 A2994 RMK AO2
                 SLP153 T10561133 =
2018-12-18 10:54 METAR KPSF 181554Z AUTO 32013G20KT 290V350 10SM OVC034 M06/M14 A2994 RMK AO2
                 SLP154 T10611139 =
2018-12-18 09:54 METAR KPSF 181454Z AUTO 36007G15KT 310V040 10SM BKN032 BKN040 M07/M14 A2994 RMK
                 AO2 SLP154 T10671144 50025 =
2018-12-18 08:54 METAR KPSF 181354Z AUTO 32010G22KT 10SM CLR M08/M14 A2994 RMK AO2 SLP155
                 T10781144 =
2018-12-18 07:54 METAR KPSF 181254Z AUTO 31010G22KT 10SM CLR M09/M15 A2990 RMK AO2 PK WND
                 30028/1156 SLP142 T10891150 =
2018-12-18 06:54 METAR KPSF 181154Z AUTO 30015G26KT 10SM FEW028 M08/M14 A2986 RMK AO2 PK WND
                 30028/1108 SLP128 60001 70002 T10831144 11039 21083 53032 =
2018-12-18 05:54 METAR KPSF 181054Z AUTO 30013G31KT 10SM FEW028 SCT033 M08/M14 A2983 RMK AO2 PK
                 WND 30035/1007 SLP117 T10831139 =
2018-12-18 04:54 METAR KPSF 180954Z AUTO 30021G32KT 10SM SCT029 M08/M14 A2979 RMK AO2 PK WND
                 29032/0954 SLP103 T10781139 =
2018-12-18 04:18 METAR KPSF 180918Z AUTO 30018G27KT 10SM SCT029 M08/M14 A2978 RMK AO2 PK WND
                 30029/0857 T10781139 =
2018-12-18 03:54 METAR KPSF 180854Z AUTO 30016G31KT 7SM BKN029 M08/M14 A2977 RMK AO2 PK WND
                 30035/0803 UPE22B49E50 SLP094 P0000 60001 T10781139 53033 =
2018-12-18 03:45 METAR KPSF 180845Z AUTO 30015G31KT 7SM SCT029 M08/M14 A2976 RMK AO2 PK WND
                 30035/0803 UPE22 P0000 T10781139 =
2018-12-18 02:54 METAR KPSF 180754Z AUTO 30021G31KT 4SM UP OVC024 M07/M13 A2974 RMK AO2 PK WND
                 30045/0655 UPB51SNE49 SLP084 P0001 T10721128 =
2018-12-18 02:27 METAR KPSF 180727Z AUTO 29019G31KT 3SM -SN OVC021 M07/M12 A2972 RMK AO2 PK WND
                 30045/0655 P0001 T10671122 =
2018-12-18 01:54 METAR KPSF 180654Z AUTO 30025G37KT 1 1/4SM -SN SCT022 OVC026 M06/M11 A2969 RMK
                 AO2 PK WND 27043/0636 UPE0555B12E13SNB0555E12B13 SLP065 P0000 T10611106 =
2018-12-18 01:44 METAR KPSF 180644Z AUTO 28029G43KT 3/4SM -SN OVC028 M06/M11 A2968 RMK AO2 PK WND
                 27043/0636 UPE0555B12E13SNB0555E12B13 P0000 T10611106 =
2018-12-18 01:20 METAR KPSF 180620Z AUTO 30023G36KT 1 3/4SM -SN OVC030 M05/M10 A2967 RMK AO2 PK
                 WND 29036/0612 VIS 1 1/4V2 1/2 UPE0555B12E13SNB0555E12B13 P0000 T10501100 =
2018-12-18 01:17 METAR KPSF 180617Z AUTO 29023G36KT 2SM -SN OVC028 M05/M10 A2967 RMK AO2 PK WND
                 29036/0612 VIS 1 1/2V4 UPE0555B12E13SNB0555E12B13 P0000 T10501100 =
2018-12-18 01:08 METAR KPSF 180608Z AUTO 30022G34KT 3SM -SN BKN028 OVC036 M04/M09 A2967 RMK AO2
                 PK WND 28034/0556 UPE0555SNB0555 P0000 T10441094 =
2018-12-18 01:01 METAR KPSF 180601Z AUTO 28024G38KT 1 3/4SM -SN BKN028 OVC036 M04/M09 A2966 RMK
                 AO2 PK WND 28034/0556 VIS 1 1/4V3 UPE0555SNB0555 P0000 T10441094 =
2018-12-18 00:54 METAR KPSF 180554Z AUTO 29026G38KT 3SM UP BKN028 OVC035 M04/M09 A2966 RMK AO2 PK
                 WND 31039/0521 UPB03E15B34SNB15E34 SLP056 P0000 60001 T10391089 10011 21039
                 53015 =
2018-12-18 00:47 METAR KPSF 180547Z AUTO 29022G33KT 4SM UP BKN030 OVC039 M04/M09 A2966 RMK AO2 PK
                 WND 31039/0521 UPB03E15B34SNB15E34 P0000 T10391089 =
2018-12-18 00:39 METAR KPSF 180539Z AUTO 29022G34KT 2 1/2SM UP BKN036 OVC044 M04/M09 A2966 RMK
                 AO2 PK WND 31039/0521 VIS 1 3/4V4 UPB03E15B34SNB15E34 P0000 T10391089 =
2018-12-18 00:21 METAR KPSF 180521Z AUTO 30026G39KT 1SM -SN FEW027 BKN038 OVC045 M03/M08 A2965
                 RMK AO2 PK WND 31039/0521 VIS 1/2V2 1/2 UPB03E15SNB15 P0000 T10331083 =
2018-12-18 00:09 METAR KPSF 180509Z AUTO 30023G36KT 2 1/2SM UP FEW022 BKN038 OVC044 M02/M07 A2964
                 RMK AO2 PK WND 30036/0502 VIS 1V5 UPB03 P0000 T10221072 =
2018-12-17 23:54 METAR KPSF 180454Z AUTO 30014G26KT 6SM HZ SCT019 BKN027 OVC034 M02/M06 A2964 RMK
                 AO2 PK WND 28031/0414 SNE54 SLP046 P0000 T10221061 400171022 =
2018-12-17 23:51 METAR KPSF 180451Z AUTO 30019G28KT 5SM -SN SCT016 BKN022 OVC036 M02/M06 A2964
                 RMK AO2 PK WND 28031/0414 P0000 =
2018-12-17 23:43 METAR KPSF 180443Z AUTO 30014G25KT 2SM -SN BKN020 OVC036 M02/M06 A2964 RMK AO2
                 PK WND 28031/0414 VIS 1 1/4V5 P0000 T10221056 =
2018-12-17 23:33 METAR KPSF 180433Z AUTO 30015G27KT 1/2SM SN VV020 M02/M05 A2963 RMK AO2 PK WND
                 28031/0414 PRESRR P0000 T10221050 =
2018-12-17 23:23 METAR KPSF 180423Z AUTO 29020G31KT 1 1/4SM -SN FEW014 OVC028 M02/M05 A2962 RMK
                 AO2 PK WND 28031/0414 P0000 T10171050 =
2018-12-17 23:13 METAR KPSF 180413Z AUTO 28020G30KT 2SM -SN FEW014 BKN040 OVC060 M02/M06 A2961
                 RMK AO2 PK WND 28030/0410 VIS 1 1/2V4 P0000 T10171056 =
2018-12-17 22:54 METAR KPSF 180354Z AUTO 29019G27KT 5SM -SN FEW013 BKN044 OVC055 M01/M04 A2962
                 RMK AO2 PK WND 30031/0329 SLP038 P0000 T10111044 =
2018-12-17 22:49 METAR KPSF 180349Z AUTO 28018G28KT 3SM -SN FEW013 BKN040 OVC060 M01/M04 A2962
                 RMK AO2 PK WND 30031/0329 P0000 =
2018-12-17 22:37 METAR KPSF 180337Z AUTO 29019G31KT 2SM -SN SCT013 BKN020 OVC033 M01/M04 A2963
                 RMK AO2 PK WND 30031/0329 P0000 T10111039 =
2018-12-17 22:25 METAR KPSF 180325Z AUTO 28020G31KT 3SM -SN SCT013 BKN018 OVC031 M01/M04 A2962
                 RMK AO2 PK WND 30031/0316 P0000 T10111039 =
2018-12-17 22:09 METAR KPSF 180309Z AUTO 29015G28KT 1 3/4SM -SN FEW009 BKN015 OVC024 M01/M03
                 A2962 RMK AO2 PK WND 31028/0307 P0000 T10061033 =
2018-12-17 22:03 METAR KPSF 180303Z AUTO 29018G26KT 2SM -SN SCT009 BKN013 OVC030 M01/M03 A2962
                 RMK AO2 PK WND 29026/0302 P0000 T10061033 =
2018-12-17 21:54 METAR KPSF 180254Z AUTO 29017G28KT 1 3/4SM -SN BR BKN009 OVC017 M01/M03 A2962
                 RMK AO2 PK WND 30030/0155 SLP036 P0001 60001 T10061028 53001 =
2018-12-17 21:36 METAR KPSF 180236Z AUTO 29018G27KT 2 1/2SM -SN BR BKN009 OVC020 M01/M03 A2961
                 RMK AO2 PK WND 30030/0155 P0001 T10061028 =
2018-12-17 21:28 METAR KPSF 180228Z AUTO 29017G23KT 1SM -SN BR SCT009 BKN018 OVC030 M01/M03 A2961
                 RMK AO2 PK WND 30030/0155 P0001 T10061028 =
2018-12-17 21:19 METAR KPSF 180219Z AUTO 28017G24KT 1 1/4SM -SN SCT009 BKN014 OVC030 00/M03 A2961
                 RMK AO2 PK WND 30030/0155 P0001 T00001028 =
2018-12-17 21:16 METAR KPSF 180216Z AUTO 29014G28KT 2SM -SN SCT009 BKN018 OVC030 00/M03 A2961 RMK
                 AO2 PK WND 30030/0155 P0000 T00001028 =
2018-12-17 21:13 METAR KPSF 180213Z AUTO 28019G28KT 3SM -SN BKN009 BKN020 OVC030 00/M03 A2961 RMK
                 AO2 PK WND 30030/0155 P0000 T00001028 =
2018-12-17 21:05 METAR KPSF 180205Z AUTO 29016G29KT 1 3/4SM -SN BKN009 BKN015 OVC020 00/M03 A2961
                 RMK AO2 PK WND 30030/0155 P0000 T00001028 =
2018-12-17 20:54 METAR KPSF 180154Z AUTO 28018G26KT 2SM -SN BKN009 BKN015 OVC025 00/M03 A2961 RMK
                 AO2 PK WND 28034/0131 SLP035 P0000 T00001028 =
2018-12-17 20:44 METAR KPSF 180144Z AUTO 28021G26KT 2SM -SN BKN009 BKN013 OVC025 00/M03 A2961 RMK
                 AO2 PK WND 28034/0131 P0000 T00001028 =
2018-12-17 20:34 METAR KPSF 180134Z AUTO 28021G34KT 1 1/2SM -SN BKN010 BKN014 OVC020 00/M03 A2961
                 RMK AO2 PK WND 28034/0131 P0000 T00001028 =
2018-12-17 20:25 METAR KPSF 180125Z AUTO 28018G28KT 2SM -SN BR BKN012 BKN019 OVC027 00/M02 A2961
                 RMK AO2 PK WND 27028/0120 P0000 T00001022 =
2018-12-17 20:03 METAR KPSF 180103Z AUTO 28021G26KT 2SM -SN FEW012 BKN024 OVC070 01/M02 A2961 RMK
                 AO2 PK WND 28026/0101 P0000 T00061022 =
2018-12-17 19:54 METAR KPSF 180054Z AUTO 28016G25KT 4SM -SN BKN016 BKN022 OVC070 01/M02 A2961 RMK
                 AO2 PK WND 28027/0038 SNE2359B21 SLP035 P0000 T00061022 =
2018-12-17 19:14 METAR KPSF 180014Z AUTO 28014G22KT 10SM BKN016 BKN025 OVC070 01/M02 A2961 RMK
                 AO2 SNE2359 P0000 T00111022 =
2018-12-17 18:54 METAR KPSF 172354Z AUTO 29020G27KT 8SM -SN FEW014 SCT025 OVC070 01/M02 A2961 RMK
                 AO2 PK WND 30027/2354 SNE08B29 SLP034 P0000 60000 T00111022 10017 20011 51003 =
2018-12-17 17:54 METAR KPSF 172254Z AUTO 28014G23KT 6SM -SN FEW016 SCT022 OVC060 01/M03 A2961 RMK
                 AO2 PK WND 27027/2231 SNB33 SLP033 P0000 T00111028 =
2018-12-17 16:54 METAR KPSF 172154Z AUTO 30011G22KT 10SM SCT022 OVC065 01/M03 A2960 RMK AO2 PK
                 WND 29027/2110 SLP031 T00111028 =
2018-12-17 16:50 METAR KPSF 172150Z AUTO 30013G20KT 10SM SCT023 OVC065 01/M03 A2960 RMK AO2 PK
                 WND 29027/2110 =
2018-12-17 16:22 METAR KPSF 172122Z AUTO 29015G27KT 10SM SCT022 BKN026 OVC060 01/M03 A2959 RMK
                 AO2 PK WND 29027/2110 T00111028 =
2018-12-17 15:54 METAR KPSF 172054Z AUTO 29018G25KT 10SM FEW020 OVC055 01/M03 A2958 RMK AO2
                 SLP022 T00111028 50007 =
2018-12-17 15:51 METAR KPSF 172051Z AUTO 29013G25KT 10SM SCT020 SCT027 OVC055 01/M02 A2958 RMK
                 AO2 =
2018-12-17 14:54 METAR KPSF 171954Z AUTO 29016G23KT 10SM SCT017 BKN022 OVC050 02/M02 A2957 RMK
                 AO2 PK WND 28028/1924 SLP019 T00171022 =
2018-12-17 14:17 METAR KPSF 171917Z AUTO 29020G25KT 9SM SCT014 BKN020 OVC060 02/M02 A2955 RMK AO2
                 PK WND 28028/1903 T00171017 =
2018-12-17 13:54 METAR KPSF 171854Z AUTO 29019G31KT 10SM BKN014 OVC022 02/M01 A2956 RMK AO2 PK
                 WND 29031/1854 SLP014 T00171011 =

Support USWX by starting your Amazon purchase here.